createdAt,value
2018-01-29T00:00:50.374Z,101601.70
2018-01-29T00:03:17.957Z,101605.08
2018-01-29T00:05:45.456Z,101595.70
2018-01-29T00:08:12.996Z,101601.69
2018-01-29T00:10:40.558Z,101607.21
2018-01-29T00:13:08.094Z,101606.35
2018-01-29T00:15:35.612Z,101599.52
2018-01-29T00:18:03.096Z,101607.64
2018-01-29T00:20:30.589Z,101608.52
2018-01-29T00:22:58.106Z,101604.23
2018-01-29T00:25:26.071Z,101616.17
2018-01-29T00:27:53.573Z,101603.39
2018-01-29T00:30:21.088Z,101604.23
2018-01-29T00:32:48.589Z,101607.23
2018-01-29T00:35:16.146Z,101615.31
2018-01-29T00:37:43.896Z,101614.03
2018-01-29T00:40:11.398Z,101608.89
2018-01-29T00:42:38.911Z,101607.15
2018-01-29T00:45:06.472Z,101604.62
2018-01-29T00:47:34.010Z,101605.89
2018-01-29T00:50:01.514Z,101601.20
2018-01-29T00:52:29.066Z,101610.58
2018-01-29T00:54:56.622Z,101605.91
2018-01-29T00:57:24.113Z,101605.05
2018-01-29T00:59:51.601Z,101604.61
2018-01-29T01:02:19.119Z,101590.95
2018-01-29T01:04:46.632Z,101603.77
2018-01-29T01:07:14.132Z,101601.20
2018-01-29T01:09:41.679Z,101599.50
2018-01-29T01:12:09.164Z,101595.66
2018-01-29T01:14:36.685Z,101601.62
2018-01-29T01:17:04.203Z,101597.36
2018-01-29T01:19:31.787Z,101594.80
2018-01-29T01:21:59.329Z,101591.81
2018-01-29T01:24:26.848Z,101601.67
2018-01-29T01:26:54.344Z,101592.23
2018-01-29T01:29:21.855Z,101588.88
2018-01-29T01:31:49.378Z,101583.34
2018-01-29T01:34:16.876Z,101580.77
2018-01-29T01:36:44.416Z,101582.42
2018-01-29T01:39:11.956Z,101580.37
2018-01-29T01:41:39.466Z,101565.86
2018-01-29T01:44:06.966Z,101574.80
2018-01-29T01:46:34.471Z,101561.19
2018-01-29T01:49:01.974Z,101559.49
2018-01-29T01:51:29.527Z,101549.22
2018-01-29T01:53:57.060Z,101554.38
2018-01-29T01:56:24.567Z,101537.72
2018-01-29T01:58:52.104Z,101540.73
2018-01-29T02:01:19.625Z,101544.56
2018-01-29T02:03:47.188Z,101539.88
2018-01-29T02:06:14.690Z,101547.12
2018-01-29T02:08:42.206Z,101538.61
2018-01-29T02:11:09.731Z,101536.90
2018-01-29T02:13:37.218Z,101547.57
2018-01-29T02:16:04.770Z,101535.61
2018-01-29T02:18:32.368Z,101526.23
2018-01-29T02:20:59.987Z,101534.78
2018-01-29T02:23:27.492Z,101532.63
2018-01-29T02:25:55.012Z,101531.78
2018-01-29T02:28:22.549Z,101529.63
2018-01-29T02:30:50.038Z,101518.98
2018-01-29T02:33:17.566Z,101518.97
2018-01-29T02:35:45.084Z,101512.17
2018-01-29T02:38:12.594Z,101500.19
2018-01-29T02:40:40.099Z,101497.66
2018-01-29T02:43:07.636Z,101498.50
2018-01-29T02:45:35.118Z,101498.06
2018-01-29T02:48:02.622Z,101489.55
2018-01-29T02:50:30.145Z,101485.72
2018-01-29T02:52:57.641Z,101482.73
2018-01-29T02:55:28.942Z,101483.12
2018-01-29T02:57:56.468Z,101476.33
2018-01-29T03:00:24.002Z,101481.85
2018-01-29T03:02:51.561Z,101484.41
2018-01-29T03:05:19.053Z,101476.75
2018-01-29T03:07:46.540Z,101469.90
2018-01-29T03:10:14.042Z,101464.35
2018-01-29T03:12:41.577Z,101477.16
2018-01-29T03:15:09.087Z,101480.58
2018-01-29T03:17:36.637Z,101470.78
2018-01-29T03:20:04.146Z,101463.09
2018-01-29T03:22:31.685Z,101451.58
2018-01-29T03:24:59.187Z,101462.23
2018-01-29T03:27:26.788Z,101460.53
2018-01-29T03:29:54.293Z,101445.17
2018-01-29T03:32:21.827Z,101451.14
2018-01-29T03:34:49.438Z,101445.17
2018-01-29T03:37:16.926Z,101434.50
2018-01-29T03:39:44.413Z,101437.08
2018-01-29T03:42:11.934Z,101443.45
2018-01-29T03:44:39.491Z,101443.03
2018-01-29T03:47:07.013Z,101440.89
2018-01-29T03:49:34.507Z,101431.08
2018-01-29T03:52:02.044Z,101441.73
2018-01-29T03:54:29.552Z,101434.07
2018-01-29T03:56:57.106Z,101429.80
2018-01-29T03:59:24.658Z,101427.67
2018-01-29T04:01:52.165Z,101439.61
2018-01-29T04:04:19.690Z,101431.50
2018-01-29T04:06:47.204Z,101405.94
2018-01-29T04:09:14.693Z,101426.39
2018-01-29T04:11:42.202Z,101425.12
2018-01-29T04:14:09.753Z,101437.91
2018-01-29T04:16:37.278Z,101431.52
2018-01-29T04:19:04.875Z,101429.81
2018-01-29T04:21:32.406Z,101422.98
2018-01-29T04:23:59.870Z,101425.54
2018-01-29T04:26:27.404Z,101419.55
2018-01-29T04:28:54.918Z,101420.00
2018-01-29T04:31:22.423Z,101414.05
2018-01-29T04:33:49.933Z,101412.73
2018-01-29T04:36:17.458Z,101411.48
2018-01-29T04:38:44.933Z,101417.88
2018-01-29T04:41:12.458Z,101413.17
2018-01-29T04:43:39.952Z,101408.50
2018-01-29T04:46:07.468Z,101408.06
2018-01-29T04:48:34.995Z,101406.34
2018-01-29T04:51:02.508Z,101402.95
2018-01-29T04:53:30.180Z,101411.89
2018-01-29T04:55:57.676Z,101396.95
2018-01-29T04:58:25.166Z,101399.09
2018-01-29T05:00:52.682Z,101398.67
2018-01-29T05:03:20.196Z,101393.98
2018-01-29T05:05:47.702Z,101395.25
2018-01-29T05:08:15.242Z,101390.16
2018-01-29T05:10:42.743Z,101394.40
2018-01-29T05:13:10.223Z,101398.69
2018-01-29T05:15:37.697Z,101396.98
2018-01-29T05:18:05.202Z,101398.25
2018-01-29T05:20:32.712Z,101392.29
2018-01-29T05:23:00.282Z,101372.67
2018-01-29T05:25:27.777Z,101376.08
2018-01-29T05:27:55.299Z,101380.34
2018-01-29T05:30:22.769Z,101377.34
2018-01-29T05:32:50.257Z,101375.64
2018-01-29T05:38:27.297Z,101379.90
2018-01-29T05:40:54.812Z,101376.91
2018-01-29T05:43:22.316Z,101363.69
2018-01-29T05:45:49.810Z,101373.94
2018-01-29T05:48:17.344Z,101367.09
2018-01-29T05:50:44.834Z,101368.81
2018-01-29T05:53:12.349Z,101373.91
2018-01-29T05:55:39.893Z,101366.66
2018-01-29T05:58:07.397Z,101367.90
2018-01-29T06:00:34.940Z,101367.83
2018-01-29T06:03:02.435Z,101344.87
2018-01-29T06:05:29.991Z,101375.17
2018-01-29T06:07:57.512Z,101365.36
2018-01-29T06:10:25.040Z,101363.25
2018-01-29T06:12:52.533Z,101359.84
2018-01-29T06:15:20.069Z,101362.83
2018-01-29T06:17:47.606Z,101367.92
2018-01-29T06:20:15.135Z,101363.25
2018-01-29T06:22:42.660Z,101358.97
2018-01-29T06:25:10.207Z,101387.55
2018-01-29T06:27:37.725Z,101381.16
2018-01-29T06:30:05.258Z,101370.93
2018-01-29T06:32:32.755Z,101364.53
2018-01-29T06:35:00.277Z,101367.09
2018-01-29T06:37:27.836Z,101371.36
2018-01-29T06:39:55.324Z,101379.45
2018-01-29T06:42:22.826Z,101382.45
2018-01-29T06:44:50.318Z,101391.41
2018-01-29T06:47:17.833Z,101376.48
2018-01-29T06:49:45.350Z,101387.16
2018-01-29T06:52:12.954Z,101351.75
2018-01-29T06:54:40.530Z,101360.28
2018-01-29T06:57:08.307Z,101364.55
2018-01-29T06:59:35.824Z,101367.53
2018-01-29T07:02:03.316Z,101356.87
2018-01-29T07:04:30.840Z,101350.47
2018-01-29T07:06:58.322Z,101356.44
2018-01-29T07:09:25.858Z,101353.02
2018-01-29T07:11:53.392Z,101346.19
2018-01-29T07:14:20.942Z,101357.27
2018-01-29T07:16:48.449Z,101354.72
2018-01-29T07:19:15.966Z,101346.18
2018-01-29T07:21:43.462Z,101338.05
2018-01-29T07:24:11.025Z,101342.77
2018-01-29T07:26:38.541Z,101341.05
2018-01-29T07:29:06.065Z,101326.13
2018-01-29T07:31:33.648Z,101304.37
2018-01-29T07:34:01.198Z,101332.94
2018-01-29T07:36:28.830Z,101341.48
2018-01-29T07:38:56.332Z,101332.08
2018-01-29T07:41:23.847Z,101341.45
2018-01-29T07:43:51.339Z,101342.32
2018-01-29T07:46:18.865Z,101328.23
2018-01-29T07:48:46.423Z,101326.96
2018-01-29T07:51:13.989Z,101312.02
2018-01-29T07:53:41.539Z,101305.19
2018-01-29T07:56:09.048Z,101300.89
2018-01-29T07:58:36.612Z,101297.05
2018-01-29T08:01:04.124Z,101294.88
2018-01-29T08:03:32.432Z,101294.48
2018-01-29T08:05:59.992Z,101285.50
2018-01-29T08:08:27.485Z,101296.16
2018-01-29T08:10:55.070Z,101299.14
2018-01-29T08:13:22.573Z,101303.84
2018-01-29T08:15:50.102Z,101297.41
2018-01-29T08:18:17.606Z,101303.40
2018-01-29T08:20:45.251Z,101283.36
2018-01-29T08:23:12.778Z,101287.17
2018-01-29T08:25:40.317Z,101286.33
2018-01-29T08:28:07.847Z,101275.64
2018-01-29T08:30:35.391Z,101274.75
2018-01-29T08:33:02.882Z,101280.73
2018-01-29T08:35:30.411Z,101270.52
2018-01-29T08:37:57.893Z,101273.03
2018-01-29T08:40:25.756Z,101263.20
2018-01-29T08:42:53.287Z,101272.58
2018-01-29T08:45:20.778Z,101263.22
2018-01-29T08:47:48.305Z,101264.89
2018-01-29T08:50:15.803Z,101261.47
2018-01-29T08:52:43.321Z,101257.22
2018-01-29T08:55:10.811Z,101270.00
2018-01-29T08:57:38.328Z,101270.03
2018-01-29T09:00:05.840Z,101264.88
2018-01-29T09:02:33.360Z,101268.31
2018-01-29T09:05:00.856Z,101262.31
2018-01-29T09:07:28.343Z,101265.31
2018-01-29T09:09:55.914Z,101267.44
2018-01-29T09:12:23.402Z,101258.06
2018-01-29T09:14:50.892Z,101247.39
2018-01-29T09:17:18.414Z,101252.53
2018-01-29T09:19:45.979Z,101255.97
2018-01-29T09:22:13.539Z,101257.23
2018-01-29T09:24:41.050Z,101252.53
2018-01-29T09:27:11.556Z,101245.73
2018-01-29T09:29:39.065Z,101248.28
2018-01-29T09:32:06.559Z,101250.00
2018-01-29T09:34:34.116Z,101250.86
2018-01-29T09:37:01.660Z,101250.84
2018-01-29T09:39:29.158Z,101251.27
2018-01-29T09:41:56.675Z,101249.53
2018-01-29T09:44:24.181Z,101251.28
2018-01-29T09:46:51.799Z,101248.69
2018-01-29T09:49:19.329Z,101250.00
2018-01-29T09:51:47.530Z,101255.13
2018-01-29T09:54:15.168Z,101243.63
2018-01-29T09:56:42.691Z,101243.19
2018-01-29T09:59:10.226Z,101247.02
2018-01-29T10:01:37.721Z,101248.31
2018-01-29T10:04:05.249Z,101250.02
2018-01-29T10:06:32.802Z,101255.59
2018-01-29T10:09:00.327Z,101245.81
2018-01-29T10:11:27.825Z,101237.73
2018-01-29T10:13:55.302Z,101238.14
2018-01-29T10:16:22.840Z,101239.88
2018-01-29T10:18:50.332Z,101241.62
2018-01-29T10:21:17.843Z,101232.66
2018-01-29T10:23:45.331Z,101228.83
2018-01-29T10:26:12.864Z,101234.38
2018-01-29T10:28:40.352Z,101223.73
2018-01-29T10:31:07.901Z,101221.59
2018-01-29T10:33:35.768Z,101225.86
2018-01-29T10:36:03.283Z,101215.22
2018-01-29T10:38:30.782Z,101218.17
2018-01-29T10:40:58.274Z,101202.01
2018-01-29T10:43:25.792Z,101206.70
2018-01-29T10:45:53.339Z,101205.84
2018-01-29T10:48:20.858Z,101203.27
2018-01-29T10:50:48.400Z,101202.02
2018-01-29T10:53:15.891Z,101196.03
2018-01-29T10:55:43.392Z,101191.78
2018-01-29T10:58:10.888Z,101185.80
2018-01-29T11:00:44.112Z,101181.56
2018-01-29T11:03:11.603Z,101170.46
2018-01-29T11:05:39.198Z,101167.48
2018-01-29T11:08:06.696Z,101171.77
2018-01-29T11:10:34.199Z,101170.91
2018-01-29T11:13:01.723Z,101174.72
2018-01-29T11:15:29.227Z,101165.77
2018-01-29T11:17:56.743Z,101169.59
2018-01-29T11:20:24.229Z,101154.23
2018-01-29T11:22:51.780Z,101151.63
2018-01-29T11:25:19.287Z,101142.22
2018-01-29T11:27:46.820Z,101126.45
2018-01-29T11:30:14.349Z,101126.45
2018-01-29T11:32:41.880Z,101127.70
2018-01-29T11:35:09.442Z,101125.97
2018-01-29T11:37:36.940Z,101132.38
2018-01-29T11:40:04.423Z,101125.51
2018-01-29T11:42:31.905Z,101122.48
2018-01-29T11:44:59.428Z,101118.25
2018-01-29T11:47:26.947Z,101119.91
2018-01-29T11:49:54.496Z,101110.97
2018-01-29T11:52:22.013Z,101105.77
2018-01-29T11:54:49.718Z,101107.91
2018-01-29T11:57:17.241Z,101089.56
2018-01-29T11:59:44.731Z,101089.96
2018-01-29T12:02:12.249Z,101083.11
2018-01-29T12:04:39.752Z,101087.81
2018-01-29T12:07:07.280Z,101083.97
2018-01-29T12:09:34.788Z,101077.95
2018-01-29T12:12:02.293Z,101081.79
2018-01-29T12:14:29.796Z,101073.23
2018-01-29T12:16:57.303Z,101061.24
2018-01-29T12:19:24.820Z,101062.89
2018-01-29T12:21:52.732Z,101054.77
2018-01-29T12:24:20.305Z,101062.00
2018-01-29T12:26:47.804Z,101045.27
2018-01-29T12:29:15.320Z,101041.80
2018-01-29T12:31:42.808Z,101052.80
2018-01-29T12:34:10.318Z,101030.54
2018-01-29T12:36:37.817Z,101037.80
2018-01-29T12:39:05.320Z,101034.36
2018-01-29T12:41:32.823Z,101027.03
2018-01-29T12:44:00.368Z,101026.13
2018-01-29T12:46:27.847Z,101027.91
2018-01-29T12:48:55.410Z,101022.78
2018-01-29T12:51:22.902Z,101019.87
2018-01-29T12:53:50.476Z,101007.08
2018-01-29T12:56:18.007Z,101032.30
2018-01-29T12:58:45.640Z,101012.73
2018-01-29T13:01:13.166Z,101017.01
2018-01-29T13:03:40.688Z,101009.77
2018-01-29T13:06:08.177Z,101007.98
2018-01-29T13:08:35.667Z,100996.81
2018-01-29T13:11:03.421Z,100991.28
2018-01-29T13:13:30.953Z,100990.44
2018-01-29T13:15:58.430Z,100987.47
2018-01-29T13:18:25.931Z,100986.58
2018-01-29T13:20:53.875Z,100983.18
2018-01-29T13:23:21.386Z,100974.16
2018-01-29T13:25:48.873Z,100977.57
2018-01-29T13:28:16.399Z,100976.31
2018-01-29T13:30:43.887Z,100959.69
2018-01-29T13:33:11.428Z,100958.00
2018-01-29T13:35:38.924Z,100956.73
2018-01-29T13:38:06.416Z,100950.36
2018-01-29T13:40:33.927Z,100958.52
2018-01-29T13:43:01.493Z,100942.73
2018-01-29T13:45:29.000Z,100949.17
2018-01-29T13:47:56.553Z,100941.04
2018-01-29T13:50:24.077Z,100923.23
2018-01-29T13:52:51.596Z,100946.33
2018-01-29T13:55:19.170Z,100893.39
2018-01-29T13:57:46.665Z,100944.16
2018-01-29T14:00:14.166Z,100920.67
2018-01-29T14:02:41.647Z,100917.31
2018-01-29T14:05:09.167Z,100916.42
2018-01-29T14:07:36.740Z,100916.02
2018-01-29T14:10:04.317Z,100912.97
2018-01-29T14:12:32.231Z,100913.83
2018-01-29T14:14:59.730Z,100912.15
2018-01-29T14:17:27.230Z,100904.91
2018-01-29T14:19:54.753Z,100901.53
2018-01-29T14:22:22.268Z,100901.55
2018-01-29T14:24:49.755Z,100896.37
2018-01-29T14:27:17.263Z,100889.67
2018-01-29T14:29:44.791Z,100886.66
2018-01-29T14:32:12.338Z,100880.23
2018-01-29T14:34:39.866Z,100877.22
2018-01-29T14:37:07.370Z,100880.23
2018-01-29T14:39:34.880Z,100881.12
2018-01-29T14:42:02.409Z,100882.34
2018-01-29T14:44:29.901Z,100879.83
2018-01-29T14:46:57.444Z,100874.75
2018-01-29T14:49:24.948Z,100876.53
2018-01-29T14:51:52.444Z,100874.87
2018-01-29T14:54:19.965Z,100870.64
2018-01-29T14:56:47.466Z,100854.55
2018-01-29T14:59:15.030Z,100863.08
2018-01-29T15:01:42.517Z,100867.37
2018-01-29T15:04:10.047Z,100868.25
2018-01-29T15:06:37.589Z,100846.55
2018-01-29T15:09:05.081Z,100855.43
2018-01-29T15:11:32.591Z,100853.80
2018-01-29T15:14:00.146Z,100840.97
2018-01-29T15:16:27.673Z,100835.06
2018-01-29T15:18:55.192Z,100828.62
2018-01-29T15:21:22.687Z,100808.22
2018-01-29T15:23:50.264Z,100826.95
2018-01-29T15:26:17.763Z,100821.82
2018-01-29T15:28:45.285Z,100817.10
2018-01-29T15:31:12.793Z,100829.91
2018-01-29T15:33:40.306Z,100810.22
2018-01-29T15:36:07.840Z,100806.02
2018-01-29T15:38:35.396Z,100808.98
2018-01-29T15:41:02.901Z,100812.34
2018-01-29T15:43:30.375Z,100797.05
2018-01-29T15:45:57.900Z,100797.84
2018-01-29T15:48:25.389Z,100796.98
2018-01-29T15:50:52.914Z,100789.72
2018-01-29T15:53:20.429Z,100795.30
2018-01-29T15:55:47.950Z,100794.44
2018-01-29T15:58:15.437Z,100778.69
2018-01-29T16:00:42.932Z,100783.41
2018-01-29T16:03:10.440Z,100792.84
2018-01-29T16:05:37.947Z,100794.11
2018-01-29T16:08:05.474Z,100800.08
2018-01-29T16:10:32.964Z,100780.10
2018-01-29T16:13:00.481Z,100772.87
2018-01-29T16:15:27.974Z,100793.34
2018-01-29T16:17:55.484Z,100784.80
2018-01-29T16:20:23.057Z,100790.34
2018-01-29T16:22:50.567Z,100780.58
2018-01-29T16:25:18.145Z,100780.17
2018-01-29T16:27:45.644Z,100776.83
2018-01-29T16:30:13.133Z,100749.97
2018-01-29T16:32:40.629Z,100781.53
2018-01-29T16:35:08.137Z,100776.89
2018-01-29T16:37:35.644Z,100768.35
2018-01-29T16:40:03.159Z,100774.41
2018-01-29T16:42:30.685Z,100776.13
2018-01-29T16:44:58.218Z,100767.24
2018-01-29T16:47:25.720Z,100772.86
2018-01-29T16:49:53.189Z,100768.72
2018-01-29T16:52:20.735Z,100775.54
2018-01-29T16:54:48.219Z,100784.58
2018-01-29T16:57:15.692Z,100774.09
2018-01-29T16:59:43.177Z,100784.80
2018-01-29T17:02:10.655Z,100782.78
2018-01-29T17:04:38.537Z,100772.22
2018-01-29T17:07:06.022Z,100767.12
2018-01-29T17:09:33.485Z,100767.25
2018-01-29T17:12:01.005Z,100780.41
2018-01-29T17:14:28.508Z,100780.82
2018-01-29T17:16:56.014Z,100780.87
2018-01-29T17:19:23.505Z,100769.86
2018-01-29T17:21:50.995Z,100777.05
2018-01-29T17:24:18.514Z,100776.63
2018-01-29T17:26:46.013Z,100777.52
2018-01-29T17:29:13.540Z,100771.55
2018-01-29T17:31:41.039Z,100779.63
2018-01-29T17:34:08.543Z,100770.29
2018-01-29T17:36:36.056Z,100765.64
2018-01-29T17:39:03.557Z,100772.86
2018-01-29T17:41:31.076Z,100772.02
2018-01-29T17:43:58.593Z,100775.40
2018-01-29T17:46:26.099Z,100772.87
2018-01-29T17:48:53.586Z,100775.87
2018-01-29T17:51:21.121Z,100770.38
2018-01-29T17:53:49.431Z,100768.23
2018-01-29T17:56:16.947Z,100775.00
2018-01-29T17:58:44.450Z,100780.98
2018-01-29T18:01:11.940Z,100779.29
2018-01-29T18:03:39.490Z,100781.80
2018-01-29T18:06:06.993Z,100774.16
2018-01-29T18:08:34.484Z,100773.32
2018-01-29T18:11:02.367Z,100769.06
2018-01-29T18:13:29.903Z,100770.75
2018-01-29T18:15:57.410Z,100764.40
2018-01-29T18:18:25.094Z,100769.52
2018-01-29T18:20:52.608Z,100771.20
2018-01-29T18:23:20.158Z,100769.52
2018-01-29T18:25:47.896Z,100774.61
2018-01-29T18:28:17.002Z,100777.19
2018-01-29T18:30:44.662Z,100776.75
2018-01-29T18:33:12.189Z,100782.75
2018-01-29T18:35:39.787Z,100787.84
2018-01-29T18:38:09.070Z,100795.90
2018-01-29T18:40:36.573Z,100785.28
2018-01-29T18:43:04.157Z,100792.92
2018-01-29T18:45:32.151Z,100783.17
2018-01-29T18:48:01.887Z,100781.91
2018-01-29T18:50:29.440Z,100782.77
2018-01-29T18:52:56.960Z,100795.11
2018-01-29T18:55:24.464Z,100792.53
2018-01-29T18:57:52.091Z,100817.63
2018-01-29T19:00:21.244Z,100803.60
2018-01-29T19:02:49.916Z,100800.63
2018-01-29T19:05:17.398Z,100797.22
2018-01-29T19:07:44.930Z,100799.36
2018-01-29T19:10:14.655Z,100806.99
2018-01-29T19:12:42.146Z,100796.83
2018-01-29T19:15:09.663Z,100816.35
2018-01-29T19:17:37.198Z,100817.65
2018-01-29T19:20:04.689Z,100823.61
2018-01-29T19:22:32.235Z,100827.42
2018-01-29T19:24:59.728Z,100827.42
2018-01-29T19:27:27.227Z,100837.20
2018-01-29T19:29:54.745Z,100848.24
2018-01-29T19:32:22.268Z,100865.70
2018-01-29T19:34:49.777Z,100880.16
2018-01-29T19:37:17.300Z,100882.73
2018-01-29T19:39:44.773Z,100890.83
2018-01-29T19:42:12.280Z,100897.60
2018-01-29T19:44:39.792Z,100898.88
2018-01-29T19:47:07.328Z,100911.20
2018-01-29T19:49:34.811Z,100915.84
2018-01-29T19:52:02.318Z,100917.54
2018-01-29T19:54:29.815Z,100916.71
2018-01-29T19:56:58.787Z,100928.14
2018-01-29T19:59:26.292Z,100925.63
2018-01-29T20:01:53.789Z,100934.94
2018-01-29T20:04:22.215Z,100950.22
2018-01-29T20:06:50.240Z,100953.61
2018-01-29T20:09:17.852Z,100950.61
2018-01-29T20:11:45.381Z,100963.36
2018-01-29T20:14:12.911Z,100959.98
2018-01-29T20:16:40.430Z,100962.05
2018-01-29T20:19:07.928Z,100967.17
2018-01-29T20:21:35.526Z,100969.27
2018-01-29T20:24:03.120Z,100974.77
2018-01-29T20:26:30.815Z,100979.45
2018-01-29T20:28:58.343Z,100996.41
2018-01-29T20:31:26.836Z,101015.11
2018-01-29T20:33:54.725Z,101020.61
2018-01-29T20:36:22.412Z,101009.53
2018-01-29T20:38:49.975Z,101021.02
2018-01-29T20:41:17.539Z,101031.99
2018-01-29T20:43:45.044Z,101043.86
2018-01-29T20:46:12.631Z,101052.77
2018-01-29T20:48:40.189Z,101056.99
2018-01-29T20:51:07.716Z,101066.75
2018-01-29T20:53:35.280Z,101069.30
2018-01-29T20:56:02.798Z,101061.20
2018-01-29T20:58:30.344Z,101085.42
2018-01-29T21:00:57.985Z,101078.16
2018-01-29T21:03:25.511Z,101078.59
2018-01-29T21:05:53.015Z,101087.03
2018-01-29T21:08:20.632Z,101095.95
2018-01-29T21:10:48.255Z,101098.06
2018-01-29T21:13:16.267Z,101110.39
2018-01-29T21:15:43.862Z,101112.09
2018-01-29T21:18:11.555Z,101119.31
2018-01-29T21:20:39.153Z,101115.88
2018-01-29T21:23:06.780Z,101116.29
2018-01-29T21:25:34.318Z,101123.92
2018-01-29T21:28:01.810Z,101134.09
2018-01-29T21:30:29.360Z,101138.34
2018-01-29T21:32:56.860Z,101147.27
2018-01-29T21:35:24.338Z,101140.49
2018-01-29T21:37:51.841Z,101155.74
2018-01-29T21:40:19.352Z,101166.75
2018-01-29T21:42:46.829Z,101169.75
2018-01-29T21:45:14.339Z,101166.31
2018-01-29T21:47:41.837Z,101183.30
2018-01-29T21:50:09.480Z,101179.91
2018-01-29T21:52:36.972Z,101186.25
2018-01-29T21:55:04.639Z,101187.50
2018-01-29T21:57:32.124Z,101187.51
2018-01-29T21:59:59.638Z,101200.25
2018-01-29T22:02:27.172Z,101200.69
2018-01-29T22:04:54.665Z,101207.47
2018-01-29T22:07:22.183Z,101210.84
2018-01-29T22:09:49.684Z,101221.85
2018-01-29T22:12:17.182Z,101227.70
2018-01-29T22:14:44.684Z,101234.44
2018-01-29T22:17:12.154Z,101239.11
2018-01-29T22:19:39.708Z,101234.34
2018-01-29T22:22:07.212Z,101257.63
2018-01-29T22:24:34.736Z,101259.70
2018-01-29T22:27:02.293Z,101269.80
2018-01-29T22:29:29.836Z,101284.18
2018-01-29T22:31:57.361Z,101277.87
2018-01-29T22:34:24.880Z,101278.59
2018-01-29T22:36:52.395Z,101286.59
2018-01-29T22:39:19.896Z,101289.02
2018-01-29T22:41:47.408Z,101290.73
2018-01-29T22:44:14.913Z,101297.44
2018-01-29T22:46:42.407Z,101302.92
2018-01-29T22:49:09.895Z,101309.61
2018-01-29T22:51:37.383Z,101316.36
2018-01-29T22:54:04.887Z,101317.53
2018-01-29T22:56:32.349Z,101328.58
2018-01-29T22:58:59.855Z,101333.18
2018-01-29T23:01:27.364Z,101340.38
2018-01-29T23:03:54.946Z,101352.57
2018-01-29T23:06:22.459Z,101348.30
2018-01-29T23:08:49.983Z,101357.20
2018-01-29T23:11:17.479Z,101365.67
2018-01-29T23:13:44.941Z,101374.08
2018-01-29T23:16:12.473Z,101383.88
2018-01-29T23:18:39.980Z,101385.55
2018-01-29T23:21:07.502Z,101400.83
2018-01-29T23:23:35.038Z,101417.81
2018-01-29T23:26:02.527Z,101423.63
2018-01-29T23:28:30.056Z,101423.59
2018-01-29T23:30:57.550Z,101424.80
2018-01-29T23:33:25.145Z,101418.97
2018-01-29T23:35:52.676Z,101430.80
2018-01-29T23:38:20.197Z,101441.42
2018-01-29T23:40:47.706Z,101435.53
2018-01-29T23:43:15.248Z,101446.44
2018-01-29T23:45:42.770Z,101435.42
2018-01-29T23:48:10.298Z,101449.09
2018-01-29T23:50:37.826Z,101446.05
2018-01-29T23:53:05.348Z,101441.77
2018-01-29T23:55:32.855Z,101448.97
2018-01-29T23:58:00.366Z,101443.81
